createdAt,value
2019-01-08T00:00:19.142Z,61.67
2019-01-08T00:02:48.505Z,62.21
2019-01-08T00:05:17.863Z,62.14
2019-01-08T00:07:47.239Z,62.09
2019-01-08T00:10:16.607Z,62.53
2019-01-08T00:12:45.981Z,62.49
2019-01-08T00:15:15.347Z,62.10
2019-01-08T00:17:44.792Z,61.94
2019-01-08T00:20:14.142Z,62.34
2019-01-08T00:22:43.496Z,61.90
2019-01-08T00:25:12.835Z,62.03
2019-01-08T00:27:42.184Z,62.19
2019-01-08T00:30:11.547Z,62.18
2019-01-08T00:32:40.906Z,62.25
2019-01-08T00:35:10.290Z,62.50
2019-01-08T00:37:39.640Z,62.23
2019-01-08T00:40:09.066Z,62.21
2019-01-08T00:42:38.427Z,62.15
2019-01-08T00:45:07.797Z,62.22
2019-01-08T00:47:37.143Z,63.10
2019-01-08T00:50:06.620Z,62.29
2019-01-08T00:52:35.991Z,63.40
2019-01-08T00:55:05.411Z,61.89
2019-01-08T00:57:34.769Z,62.02
2019-01-08T01:00:04.229Z,62.33
2019-01-08T01:02:33.583Z,61.79
2019-01-08T01:05:02.989Z,61.51
2019-01-08T01:07:32.345Z,62.24
2019-01-08T01:10:01.712Z,61.98
2019-01-08T01:12:31.055Z,63.45
2019-01-08T01:15:00.430Z,64.04
2019-01-08T01:17:29.777Z,62.73
2019-01-08T01:19:59.136Z,62.71
2019-01-08T01:22:28.489Z,62.94
2019-01-08T01:24:57.840Z,62.47
2019-01-08T01:27:27.270Z,62.31
2019-01-08T01:29:56.647Z,61.32
2019-01-08T01:32:26.021Z,62.30
2019-01-08T01:34:55.398Z,63.81
2019-01-08T01:37:24.772Z,63.53
2019-01-08T01:39:54.133Z,64.04
2019-01-08T01:42:23.478Z,63.71
2019-01-08T01:44:52.850Z,63.61
2019-01-08T01:47:22.208Z,63.18
2019-01-08T01:49:51.588Z,62.85
2019-01-08T01:52:20.942Z,63.26
2019-01-08T01:54:50.274Z,63.13
2019-01-08T01:57:19.643Z,63.31
2019-01-08T01:59:48.989Z,62.91
2019-01-08T02:02:18.352Z,62.16
2019-01-08T02:04:49.111Z,61.81
2019-01-08T02:07:18.467Z,61.81
2019-01-08T02:09:47.854Z,62.04
2019-01-08T02:12:17.315Z,62.03
2019-01-08T02:14:46.668Z,61.91
2019-01-08T02:17:16.046Z,62.21
2019-01-08T02:19:45.401Z,62.28
2019-01-08T02:22:14.759Z,63.71
2019-01-08T02:24:44.106Z,63.00
2019-01-08T02:27:13.473Z,62.90
2019-01-08T02:29:42.816Z,63.97
2019-01-08T02:32:12.230Z,62.48
2019-01-08T02:34:41.588Z,62.75
2019-01-08T02:37:11.027Z,62.17
2019-01-08T02:39:40.390Z,62.86
2019-01-08T02:42:09.754Z,62.53
2019-01-08T02:44:39.207Z,62.56
2019-01-08T02:47:08.644Z,63.85
2019-01-08T02:49:38.002Z,64.17
2019-01-08T02:52:07.366Z,63.17
2019-01-08T02:54:36.804Z,63.18
2019-01-08T02:57:06.200Z,63.32
2019-01-08T02:59:35.577Z,62.63
2019-01-08T03:02:05.124Z,63.19
2019-01-08T03:04:34.470Z,63.82
2019-01-08T03:07:03.834Z,64.32
2019-01-08T03:09:38.149Z,62.95
2019-01-08T03:12:07.585Z,63.23
2019-01-08T03:14:37.013Z,63.53
2019-01-08T03:17:06.377Z,63.39
2019-01-08T03:19:35.770Z,63.09
2019-01-08T03:22:05.189Z,62.53
2019-01-08T03:24:34.551Z,62.96
2019-01-08T03:27:03.892Z,63.35
2019-01-08T03:29:33.778Z,63.07
2019-01-08T03:32:03.363Z,63.05
2019-01-08T03:34:32.728Z,63.25
2019-01-08T03:37:02.081Z,63.09
2019-01-08T03:39:31.456Z,63.71
2019-01-08T03:42:00.890Z,63.65
2019-01-08T03:44:30.398Z,64.01
2019-01-08T03:46:59.782Z,63.47
2019-01-08T03:49:29.140Z,63.20
2019-01-08T03:51:58.508Z,63.69
2019-01-08T03:54:27.966Z,64.03
2019-01-08T03:56:57.310Z,64.20
2019-01-08T03:59:26.685Z,63.84
2019-01-08T04:01:56.033Z,64.68
2019-01-08T04:04:25.390Z,65.35
2019-01-08T04:06:54.748Z,63.99
2019-01-08T04:09:24.179Z,64.91
2019-01-08T04:11:53.528Z,64.70
2019-01-08T04:14:22.899Z,64.48
2019-01-08T04:16:52.263Z,64.37
2019-01-08T04:19:21.646Z,64.85
2019-01-08T04:21:50.987Z,64.55
2019-01-08T04:24:20.361Z,65.22
2019-01-08T04:26:49.731Z,65.36
2019-01-08T04:29:19.088Z,67.10
2019-01-08T04:31:48.432Z,65.34
2019-01-08T04:34:17.817Z,64.47
2019-01-08T04:36:47.161Z,66.24
2019-01-08T04:39:16.512Z,65.33
2019-01-08T04:41:45.865Z,67.08
2019-01-08T04:44:15.236Z,66.36
2019-01-08T04:46:44.572Z,67.86
2019-01-08T04:49:13.941Z,67.74
2019-01-08T04:51:43.307Z,66.29
2019-01-08T04:54:12.698Z,67.70
2019-01-08T04:56:42.077Z,66.93
2019-01-08T04:59:11.457Z,66.83
2019-01-08T05:01:40.824Z,67.16
2019-01-08T05:04:10.190Z,66.33
2019-01-08T05:06:39.564Z,67.69
2019-01-08T05:09:08.986Z,68.83
2019-01-08T05:11:38.462Z,67.96
2019-01-08T05:14:07.901Z,68.41
2019-01-08T05:16:37.268Z,67.64
2019-01-08T05:19:06.674Z,67.21
2019-01-08T05:21:36.047Z,67.86
2019-01-08T05:24:05.469Z,67.47
2019-01-08T05:26:34.839Z,67.80
2019-01-08T05:29:04.178Z,68.03
2019-01-08T05:31:33.611Z,69.64
2019-01-08T05:34:02.976Z,69.06
2019-01-08T05:36:32.418Z,69.46
2019-01-08T05:39:01.782Z,68.84
2019-01-08T05:41:31.149Z,68.85
2019-01-08T05:44:00.528Z,70.63
2019-01-08T05:46:29.945Z,68.93
2019-01-08T05:48:59.274Z,67.93
2019-01-08T05:51:28.735Z,69.39
2019-01-08T05:53:58.082Z,70.15
2019-01-08T05:56:27.448Z,70.74
2019-01-08T05:58:56.850Z,69.29
2019-01-08T06:01:26.194Z,71.26
2019-01-08T06:03:55.548Z,70.97
2019-01-08T06:06:24.914Z,71.38
2019-01-08T06:08:54.328Z,69.58
2019-01-08T06:11:23.687Z,68.44
2019-01-08T06:13:53.019Z,68.94
2019-01-08T06:16:22.468Z,68.59
2019-01-08T06:18:51.814Z,69.60
2019-01-08T06:21:21.569Z,69.55
2019-01-08T06:23:50.924Z,68.12
2019-01-08T06:26:20.270Z,68.45
2019-01-08T06:28:49.700Z,68.26
2019-01-08T06:31:19.064Z,70.46
2019-01-08T06:33:48.461Z,70.06
2019-01-08T06:36:17.809Z,68.78
2019-01-08T06:38:47.174Z,69.66
2019-01-08T06:41:16.555Z,69.66
2019-01-08T06:43:45.922Z,70.73
2019-01-08T06:46:15.277Z,68.53
2019-01-08T06:48:44.666Z,69.40
2019-01-08T06:51:14.052Z,68.66
2019-01-08T06:53:43.461Z,71.48
2019-01-08T06:56:14.734Z,69.69
2019-01-08T06:58:44.097Z,70.19
2019-01-08T07:01:13.459Z,69.13
2019-01-08T07:03:42.818Z,68.61
2019-01-08T07:06:12.206Z,70.13
2019-01-08T07:08:41.631Z,70.21
2019-01-08T07:11:11.000Z,69.18
2019-01-08T07:13:40.394Z,70.10
2019-01-08T07:16:09.754Z,70.47
2019-01-08T07:18:39.136Z,71.69
2019-01-08T07:21:08.484Z,69.38
2019-01-08T07:23:37.835Z,69.73
2019-01-08T07:26:07.201Z,70.91
2019-01-08T07:28:36.568Z,69.06
2019-01-08T07:31:05.928Z,68.70
2019-01-08T07:33:35.285Z,70.47
2019-01-08T07:36:04.664Z,70.48
2019-01-08T07:38:34.015Z,69.67
2019-01-08T07:41:03.362Z,69.95
2019-01-08T07:43:32.997Z,70.70
2019-01-08T07:46:02.346Z,72.15
2019-01-08T07:48:31.709Z,70.80
2019-01-08T07:51:01.082Z,71.12
2019-01-08T07:53:30.448Z,70.61
2019-01-08T07:55:59.862Z,70.34
2019-01-08T07:58:29.205Z,70.49
2019-01-08T08:00:58.583Z,71.59
2019-01-08T08:03:27.940Z,71.13
2019-01-08T08:05:57.337Z,69.96
2019-01-08T08:08:26.713Z,69.22
2019-01-08T08:10:56.150Z,70.46
2019-01-08T08:13:25.509Z,70.51
2019-01-08T08:15:54.955Z,71.16
2019-01-08T08:18:24.449Z,71.24
2019-01-08T08:20:53.967Z,68.61
2019-01-08T08:23:23.325Z,68.72
2019-01-08T08:25:52.779Z,71.40
2019-01-08T08:28:22.207Z,69.62
2019-01-08T08:30:58.710Z,69.92
2019-01-08T08:33:22.686Z,70.39
2019-01-08T08:35:52.120Z,70.59
2019-01-08T08:38:21.575Z,68.56
2019-01-08T08:40:50.991Z,70.15
2019-01-08T08:43:20.349Z,71.50
2019-01-08T08:45:49.778Z,71.66
2019-01-08T08:48:19.269Z,70.97
2019-01-08T08:50:48.622Z,72.30
2019-01-08T08:53:18.225Z,71.47
2019-01-08T08:55:47.573Z,72.10
2019-01-08T08:58:17.058Z,71.76
2019-01-08T09:00:46.409Z,73.40
2019-01-08T09:03:15.840Z,72.52
2019-01-08T09:05:45.292Z,72.66
2019-01-08T09:08:14.828Z,72.18
2019-01-08T09:10:44.198Z,73.22
2019-01-08T09:13:13.702Z,71.83
2019-01-08T09:15:43.125Z,72.04
2019-01-08T09:18:12.684Z,71.91
2019-01-08T09:20:42.079Z,71.29
2019-01-08T09:23:11.490Z,71.39
2019-01-08T09:25:40.985Z,71.88
2019-01-08T09:28:10.741Z,71.05
2019-01-08T09:30:40.166Z,70.60
2019-01-08T09:33:09.509Z,71.31
2019-01-08T09:35:38.877Z,71.80
2019-01-08T09:38:08.314Z,71.15
2019-01-08T09:40:37.691Z,70.27
2019-01-08T09:43:07.388Z,70.24
2019-01-08T09:45:36.868Z,70.40
2019-01-08T09:48:06.242Z,69.47
2019-01-08T09:50:35.678Z,66.19
2019-01-08T09:53:05.094Z,68.57
2019-01-08T09:55:34.475Z,68.71
2019-01-08T09:58:03.838Z,69.71
2019-01-08T10:00:33.198Z,68.67
2019-01-08T10:03:02.573Z,69.06
2019-01-08T10:05:31.933Z,68.59
2019-01-08T10:08:01.306Z,69.38
2019-01-08T10:10:30.754Z,69.15
2019-01-08T10:13:00.111Z,69.03
2019-01-08T10:15:29.719Z,69.60
2019-01-08T10:17:59.085Z,71.14
2019-01-08T10:20:28.456Z,71.78
2019-01-08T10:22:57.799Z,70.60
2019-01-08T10:25:27.247Z,70.46
2019-01-08T10:27:56.591Z,69.71
2019-01-08T10:30:25.955Z,70.32
2019-01-08T10:32:55.394Z,69.99
2019-01-08T10:35:24.784Z,70.21
2019-01-08T10:37:54.140Z,69.31
2019-01-08T10:40:23.509Z,71.43
2019-01-08T10:42:52.961Z,70.77
2019-01-08T10:45:22.403Z,70.50
2019-01-08T10:47:51.816Z,66.93
2019-01-08T10:50:21.355Z,70.60
2019-01-08T10:52:50.731Z,72.17
2019-01-08T10:55:20.175Z,73.39
2019-01-08T10:57:49.542Z,74.11
2019-01-08T11:00:19.015Z,72.54
2019-01-08T11:02:48.445Z,73.49
2019-01-08T11:05:17.800Z,75.70
2019-01-08T11:07:47.153Z,71.52
2019-01-08T11:10:16.743Z,71.55
2019-01-08T11:12:46.313Z,69.23
2019-01-08T11:15:15.696Z,72.63
2019-01-08T11:17:45.071Z,75.42
2019-01-08T11:20:14.422Z,75.88
2019-01-08T11:22:43.846Z,76.46
2019-01-08T11:25:13.190Z,77.38
2019-01-08T11:27:42.540Z,76.73
2019-01-08T11:30:11.909Z,75.69
2019-01-08T11:32:41.270Z,77.10
2019-01-08T11:35:11.018Z,76.74
2019-01-08T11:37:40.471Z,77.10
2019-01-08T11:40:09.899Z,77.16
2019-01-08T11:42:39.259Z,76.37
2019-01-08T11:45:09.699Z,75.82
2019-01-08T11:47:39.137Z,75.68
2019-01-08T11:50:08.513Z,75.91
2019-01-08T11:52:37.889Z,75.10
2019-01-08T11:55:07.485Z,75.86
2019-01-08T11:57:36.891Z,75.81
2019-01-08T12:00:08.512Z,76.39
2019-01-08T12:02:37.919Z,75.28
2019-01-08T12:05:07.349Z,75.38
2019-01-08T12:07:36.700Z,75.70
2019-01-08T12:10:06.311Z,74.54
2019-01-08T12:12:35.745Z,75.60
2019-01-08T12:15:05.295Z,75.48
2019-01-08T12:17:34.643Z,73.38
2019-01-08T12:20:04.976Z,73.52
2019-01-08T12:22:40.824Z,74.57
2019-01-08T12:25:08.033Z,75.77
2019-01-08T12:27:37.781Z,76.08
2019-01-08T12:30:08.618Z,75.61
2019-01-08T12:32:38.277Z,75.67
2019-01-08T12:35:07.773Z,74.57
2019-01-08T12:37:37.209Z,73.60
2019-01-08T12:40:06.723Z,74.92
2019-01-08T12:42:36.103Z,75.61
2019-01-08T12:45:06.260Z,75.98
2019-01-08T12:47:35.612Z,73.74
2019-01-08T12:50:05.376Z,74.63
2019-01-08T12:52:34.737Z,74.57
2019-01-08T12:55:04.160Z,73.82
2019-01-08T12:57:33.545Z,71.13
2019-01-08T13:00:02.958Z,71.60
2019-01-08T13:02:32.305Z,75.00
2019-01-08T13:05:01.677Z,75.20
2019-01-08T13:07:31.076Z,74.06
2019-01-08T13:10:00.455Z,74.57
2019-01-08T13:12:29.865Z,74.57
2019-01-08T13:14:59.229Z,74.93
2019-01-08T13:17:28.564Z,74.72
2019-01-08T13:19:57.924Z,73.69
2019-01-08T13:22:27.277Z,73.20
2019-01-08T13:24:56.634Z,74.59
2019-01-08T13:27:26.045Z,75.30
2019-01-08T13:29:55.397Z,76.20
2019-01-08T13:32:24.757Z,75.23
2019-01-08T13:34:54.233Z,76.56
2019-01-08T13:37:23.597Z,76.87
2019-01-08T13:39:53.073Z,76.54
2019-01-08T13:42:22.415Z,76.72
2019-01-08T13:44:51.775Z,73.47
2019-01-08T13:47:21.153Z,75.59
2019-01-08T13:49:50.533Z,76.82
2019-01-08T13:52:19.895Z,76.14
2019-01-08T13:54:49.255Z,74.94
2019-01-08T13:57:18.631Z,76.61
2019-01-08T13:59:47.993Z,75.74
2019-01-08T14:02:17.414Z,75.08
2019-01-08T14:04:46.759Z,74.11
2019-01-08T14:07:16.193Z,72.52
2019-01-08T14:09:45.566Z,73.58
2019-01-08T14:12:14.943Z,75.30
2019-01-08T14:14:44.333Z,74.70
2019-01-08T14:17:13.697Z,74.47
2019-01-08T14:19:43.063Z,74.45
2019-01-08T14:22:12.443Z,73.47
2019-01-08T14:24:41.795Z,73.89
2019-01-08T14:27:11.842Z,74.67
2019-01-08T14:29:41.487Z,75.49
2019-01-08T14:32:10.851Z,74.45
2019-01-08T14:34:42.140Z,75.04
2019-01-08T14:37:11.486Z,75.55
2019-01-08T14:39:40.848Z,75.61
2019-01-08T14:42:10.206Z,75.62
2019-01-08T14:44:39.550Z,75.78
2019-01-08T14:47:08.921Z,75.87
2019-01-08T14:49:38.238Z,74.09
2019-01-08T14:52:07.646Z,74.41
2019-01-08T14:54:37.095Z,74.69
2019-01-08T14:57:08.158Z,74.57
2019-01-08T14:59:37.532Z,74.44
2019-01-08T15:02:06.937Z,73.37
2019-01-08T15:04:36.310Z,74.37
2019-01-08T15:07:05.737Z,73.52
2019-01-08T15:09:35.059Z,72.72
2019-01-08T15:12:04.425Z,73.61
2019-01-08T15:14:33.779Z,74.79
2019-01-08T15:17:03.224Z,74.61
2019-01-08T15:19:32.611Z,74.83
2019-01-08T15:22:02.005Z,72.79
2019-01-08T15:24:31.310Z,72.18
2019-01-08T15:27:00.653Z,72.84
2019-01-08T15:29:30.005Z,74.13
2019-01-08T15:31:59.387Z,73.98
2019-01-08T15:36:56.941Z,74.07
2019-01-08T15:39:26.380Z,73.59
2019-01-08T15:41:55.802Z,73.85
2019-01-08T15:44:25.184Z,75.74
2019-01-08T15:46:54.543Z,74.97
2019-01-08T15:49:23.885Z,74.42
2019-01-08T15:51:53.262Z,73.43
2019-01-08T15:54:22.700Z,75.01
2019-01-08T15:56:52.057Z,74.11
2019-01-08T15:59:21.421Z,75.01
2019-01-08T16:01:50.803Z,75.27
2019-01-08T16:04:20.247Z,75.19
2019-01-08T16:06:49.666Z,74.17
2019-01-08T16:09:19.031Z,73.73
2019-01-08T16:11:48.426Z,76.13
2019-01-08T16:14:17.803Z,75.84
2019-01-08T16:16:47.231Z,75.24
2019-01-08T16:19:16.595Z,73.67
2019-01-08T16:21:45.950Z,74.85
2019-01-08T16:24:15.377Z,74.80
2019-01-08T16:26:44.742Z,75.00
2019-01-08T16:29:14.134Z,74.25
2019-01-08T16:31:43.579Z,75.16
2019-01-08T16:34:14.502Z,75.08
2019-01-08T16:36:43.910Z,73.99
2019-01-08T16:39:13.286Z,75.17
2019-01-08T16:45:12.328Z,75.63
2019-01-08T16:47:41.863Z,75.97
2019-01-08T16:50:11.338Z,75.45
2019-01-08T16:52:40.726Z,75.31
2019-01-08T16:55:10.198Z,75.99
2019-01-08T16:57:40.132Z,75.67
2019-01-08T17:00:10.451Z,75.45
2019-01-08T17:02:39.914Z,75.81
2019-01-08T17:05:09.312Z,74.14
2019-01-08T17:07:38.839Z,74.91
2019-01-08T17:10:08.454Z,73.49
2019-01-08T17:12:37.880Z,74.16
2019-01-08T17:15:07.422Z,75.00
2019-01-08T17:17:36.991Z,75.10
2019-01-08T17:20:07.036Z,74.41
2019-01-08T17:22:36.460Z,73.30
2019-01-08T17:25:06.708Z,72.98
2019-01-08T17:27:36.111Z,74.29
2019-01-08T17:30:07.483Z,74.47
2019-01-08T17:32:36.874Z,73.62
2019-01-08T17:35:06.522Z,72.85
2019-01-08T17:37:36.080Z,72.38
2019-01-08T17:40:06.184Z,74.67
2019-01-08T17:42:35.567Z,73.13
2019-01-08T17:45:05.828Z,72.10
2019-01-08T17:47:35.206Z,70.94
2019-01-08T17:50:05.132Z,72.18
2019-01-08T17:52:34.531Z,73.08
2019-01-08T17:55:04.118Z,72.31
2019-01-08T17:57:33.479Z,72.62
2019-01-08T18:00:02.943Z,73.94
2019-01-08T18:02:32.322Z,74.14
2019-01-08T18:05:01.725Z,75.86
2019-01-08T18:07:31.235Z,74.82
2019-01-08T18:10:00.715Z,74.32
2019-01-08T18:12:30.454Z,74.18
2019-01-08T18:14:59.863Z,74.19
2019-01-08T18:17:29.240Z,75.40
2019-01-08T18:19:59.130Z,74.99
2019-01-08T18:22:28.590Z,75.01
2019-01-08T18:24:57.991Z,75.67
2019-01-08T18:27:27.380Z,75.94
2019-01-08T18:29:56.781Z,75.17
2019-01-08T18:32:26.673Z,74.26
2019-01-08T18:34:56.064Z,74.77
2019-01-08T18:37:25.664Z,76.09
2019-01-08T18:39:55.058Z,74.91
2019-01-08T18:42:24.431Z,75.24
2019-01-08T18:44:53.825Z,74.98
2019-01-08T18:47:23.271Z,74.63
2019-01-08T18:49:52.673Z,73.13
2019-01-08T18:52:22.055Z,73.59
2019-01-08T18:54:51.478Z,71.89
2019-01-08T18:57:20.956Z,72.51
2019-01-08T18:59:50.492Z,72.36
2019-01-08T19:02:19.933Z,72.71
2019-01-08T19:04:49.346Z,73.76
2019-01-08T19:07:18.810Z,73.92
2019-01-08T19:09:57.097Z,76.08
2019-01-08T19:12:26.641Z,75.10
2019-01-08T19:14:56.048Z,74.93
2019-01-08T19:17:25.541Z,75.53
2019-01-08T19:19:55.007Z,73.77
2019-01-08T19:22:24.504Z,73.69
2019-01-08T19:24:54.409Z,71.85
2019-01-08T19:27:24.099Z,71.39
2019-01-08T19:29:53.470Z,70.59
2019-01-08T19:32:23.204Z,71.41
2019-01-08T19:34:52.596Z,72.24
2019-01-08T19:37:22.016Z,72.15
2019-01-08T19:39:51.430Z,73.87
2019-01-08T19:42:20.834Z,74.63
2019-01-08T19:44:50.227Z,73.49
2019-01-08T19:47:20.152Z,73.38
2019-01-08T19:49:50.334Z,72.90
2019-01-08T19:52:20.950Z,72.27
2019-01-08T19:54:51.485Z,72.71
2019-01-08T19:57:21.562Z,72.06
2019-01-08T19:59:51.974Z,72.99
2019-01-08T20:02:22.719Z,71.06
2019-01-08T20:04:52.701Z,72.43
2019-01-08T20:07:23.536Z,73.24
2019-01-08T20:09:53.701Z,74.75
2019-01-08T20:12:24.099Z,75.23
2019-01-08T20:14:54.247Z,73.74
2019-01-08T20:17:24.838Z,72.87
2019-01-08T20:19:55.670Z,71.01
2019-01-08T20:22:25.654Z,71.89
2019-01-08T20:24:55.445Z,70.31
2019-01-08T20:27:26.711Z,71.74
2019-01-08T20:29:56.909Z,69.32
2019-01-08T20:32:27.006Z,68.41
2019-01-08T20:34:57.723Z,71.39
2019-01-08T20:37:27.729Z,71.83
2019-01-08T20:39:58.445Z,70.23
2019-01-08T20:42:28.685Z,69.25
2019-01-08T20:44:59.574Z,69.85
2019-01-08T20:47:29.825Z,70.98
2019-01-08T20:50:00.327Z,71.86
2019-01-08T20:52:30.783Z,73.35
2019-01-08T20:55:00.928Z,70.21
2019-01-08T20:57:31.284Z,70.59
2019-01-08T21:00:01.430Z,71.73
2019-01-08T21:02:31.448Z,71.34
2019-01-08T21:05:01.317Z,73.31
2019-01-08T21:07:31.459Z,71.76
2019-01-08T21:10:01.773Z,74.00
2019-01-08T21:12:31.192Z,74.26
2019-01-08T21:15:00.651Z,74.30
2019-01-08T21:17:30.337Z,73.24
2019-01-08T21:20:02.550Z,72.22
2019-01-08T21:22:32.955Z,71.65
2019-01-08T21:25:03.589Z,71.46
2019-01-08T21:27:33.932Z,71.05
2019-01-08T21:30:04.479Z,72.02
2019-01-08T21:32:53.202Z,72.72
2019-01-08T21:35:23.207Z,71.49
2019-01-08T21:37:53.288Z,71.26
2019-01-08T21:40:23.436Z,71.40
2019-01-08T21:42:53.649Z,70.27
2019-01-08T21:45:23.697Z,69.96
2019-01-08T21:47:53.427Z,70.86
2019-01-08T21:50:22.823Z,71.57
2019-01-08T21:52:52.286Z,73.07
2019-01-08T21:55:23.390Z,73.77
2019-01-08T21:57:53.027Z,73.11
2019-01-08T22:00:23.343Z,73.00
2019-01-08T22:02:55.099Z,73.41
2019-01-08T22:05:25.135Z,73.39
2019-01-08T22:07:55.050Z,74.50
2019-01-08T22:10:25.119Z,74.39
2019-01-08T22:12:55.139Z,75.20
2019-01-08T22:15:25.077Z,75.90
2019-01-08T22:17:55.029Z,73.98
2019-01-08T22:20:25.016Z,74.59
2019-01-08T22:22:55.078Z,72.91
2019-01-08T22:25:25.038Z,72.66
2019-01-08T22:27:56.168Z,71.52
2019-01-08T22:30:26.079Z,70.48
2019-01-08T22:32:59.041Z,72.86
2019-01-08T22:35:28.890Z,72.03
2019-01-08T22:37:58.295Z,71.31
2019-01-08T22:40:27.693Z,71.58
2019-01-08T22:42:57.100Z,71.58
2019-01-08T22:45:26.495Z,73.62
2019-01-08T22:47:56.023Z,72.65
2019-01-08T22:50:25.495Z,71.63
2019-01-08T22:52:54.900Z,71.47
2019-01-08T22:55:24.356Z,69.86
2019-01-08T22:57:53.736Z,69.70
2019-01-08T23:00:43.852Z,71.74
2019-01-08T23:03:13.509Z,71.61
2019-01-08T23:05:42.965Z,70.58
2019-01-08T23:08:12.406Z,70.54
2019-01-08T23:10:44.316Z,72.00
2019-01-08T23:13:13.850Z,72.18
2019-01-08T23:15:43.344Z,71.70
2019-01-08T23:18:12.725Z,71.29
2019-01-08T23:20:42.204Z,68.15
2019-01-08T23:23:11.687Z,71.69
2019-01-08T23:25:41.060Z,72.72
2019-01-08T23:28:10.511Z,72.57
2019-01-08T23:30:39.920Z,71.90
2019-01-08T23:33:09.399Z,72.44
2019-01-08T23:35:38.796Z,71.91
2019-01-08T23:38:08.232Z,71.40
2019-01-08T23:40:37.733Z,71.23
2019-01-08T23:43:07.154Z,71.97
2019-01-08T23:45:36.603Z,71.88
2019-01-08T23:48:06.095Z,69.54
2019-01-08T23:50:35.580Z,69.98
2019-01-08T23:53:09.495Z,68.46
2019-01-08T23:55:45.443Z,68.89
2019-01-08T23:58:14.818Z,70.15
